Time;durP1;ratioP1;P1;durP2;ratioP2;P2;SDS_P1;SDS_P2;PMS_P1;PMS_P2;Temp;Humidity;BMP_temperature;BMP_pressure;BME280_temperature;BME280_humidity;BME280_pressure;Samples;Min_cycle;Max_cycle;Signal;HPM_P1;HPM_P2
2023/12/20 00:02:11;;;;;;;51.47;25.10;;;;;;;6.55;71.70;101337.41;4859182;29;20145;-79
2023/12/20 00:04:38;;;;;;;46.13;25.10;;;;;;;6.52;71.57;101333.16;4874746;29;20460;-81
2023/12/20 00:07:05;;;;;;;48.95;23.90;;;;;;;6.41;71.93;101314.50;4864272;29;20111;-80
2023/12/20 00:09:38;;;;;;;43.83;21.60;;;;;;;6.47;72.52;101337.88;4863308;29;20293;-82
2023/12/20 00:12:12;;;;;;;37.58;20.83;;;;;;;6.47;71.29;101314.13;4838312;29;20048;-81
2023/12/20 00:14:39;;;;;;;40.38;21.88;;;;;;;6.22;71.56;101282.28;4843720;29;20484;-81
2023/12/20 00:17:11;;;;;;;41.83;21.48;;;;;;;6.43;72.10;101323.16;4819839;29;20047;-83
2023/12/20 00:19:40;;;;;;;39.38;20.95;;;;;;;6.25;71.90;101301.38;4842427;29;20531;-82
2023/12/20 00:22:12;;;;;;;36.22;18.83;;;;;;;6.06;72.50;101272.63;4842315;29;20857;-82
2023/12/20 00:24:50;;;;;;;40.25;19.85;;;;;;;6.26;72.68;101302.22;4832042;29;20046;-83
2023/12/20 00:27:21;;;;;;;42.85;20.00;;;;;;;6.47;71.87;101290.38;4830336;29;20354;-83
2023/12/20 00:29:50;;;;;;;36.23;18.93;;;;;;;6.54;71.05;101288.22;4841384;29;20051;-83
2023/12/20 00:32:17;;;;;;;32.67;18.65;;;;;;;6.42;71.62;101292.47;4840390;29;20557;-83
2023/12/20 00:34:46;;;;;;;33.67;18.58;;;;;;;6.30;71.88;101282.66;4840762;29;20489;-81
2023/12/20 00:37:13;;;;;;;48.38;20.92;;;;;;;6.24;71.39;101293.56;4883869;29;20044;-80
2023/12/20 00:39:46;;;;;;;35.97;18.55;;;;;;;6.19;72.06;101285.94;4874458;29;20139;-81
2023/12/20 00:42:14;;;;;;;37.13;20.20;;;;;;;6.05;72.73;101275.38;4854891;29;20574;-81
2023/12/20 00:44:41;;;;;;;35.88;18.85;;;;;;;5.97;72.14;101263.50;4826364;29;20436;-79
2023/12/20 00:47:13;;;;;;;42.50;19.50;;;;;;;6.01;72.51;101263.31;4843535;29;20267;-81
2023/12/20 00:49:49;;;;;;;33.35;18.63;;;;;;;5.96;72.93;101260.94;4855432;29;20067;-81
2023/12/20 00:52:22;;;;;;;38.28;18.73;;;;;;;5.89;73.29;101251.66;4835083;29;20526;-82
2023/12/20 00:54:51;;;;;;;40.78;18.60;;;;;;;6.07;73.15;101263.78;4873833;29;20043;-82
2023/12/20 00:57:18;;;;;;;34.53;17.73;;;;;;;6.12;71.80;101245.91;4886968;29;20052;-83
2023/12/20 00:59:45;;;;;;;38.13;17.50;;;;;;;5.96;72.23;101229.31;4869063;29;20044;-81
2023/12/20 01:02:11;;;;;;;28.23;16.45;;;;;;;6.09;72.65;101261.91;4895104;29;20434;-81
2023/12/20 01:04:41;;;;;;;34.05;17.40;;;;;;;6.06;72.18;101246.25;4886965;29;20059;-82
2023/12/20 01:07:11;;;;;;;36.42;17.13;;;;;;;6.14;71.06;101227.34;4869275;29;20060;-80
2023/12/20 01:09:38;;;;;;;37.47;18.13;;;;;;;6.46;70.41;101259.69;4844607;29;20044;-80
2023/12/20 01:12:05;;;;;;;32.42;16.48;;;;;;;5.92;70.63;101167.13;4859081;29;20452;-81
2023/12/20 01:14:43;;;;;;;35.22;17.30;;;;;;;6.16;71.12;101213.13;4843784;29;20142;-83
2023/12/20 01:17:12;;;;;;;32.05;17.58;;;;;;;6.40;71.49;101225.75;4860857;29;20040;-83
2023/12/20 01:19:39;;;;;;;34.10;17.70;;;;;;;6.31;70.34;101207.88;4857364;29;20139;-80
2023/12/20 01:22:05;;;;;;;26.15;15.23;;;;;;;6.30;70.52;101219.38;4855066;28;20563;-80
2023/12/20 01:24:37;;;;;;;28.02;15.85;;;;;;;6.27;70.64;101214.28;4846947;29;20309;-82
2023/12/20 01:27:11;;;;;;;30.73;15.23;;;;;;;6.18;70.42;101197.22;4851571;29;20051;-82
2023/12/20 01:29:44;;;;;;;29.05;15.85;;;;;;;6.13;71.53;101204.56;4873642;29;20297;-82
2023/12/20 01:32:11;;;;;;;28.00;14.85;;;;;;;6.07;71.68;101216.34;4868208;29;20036;-81
2023/12/20 01:34:38;;;;;;;26.15;15.45;;;;;;;5.68;72.19;101172.97;4885860;29;20268;-83
2023/12/20 01:37:05;;;;;;;34.92;16.40;;;;;;;6.00;71.99;101209.75;4877981;29;20391;-81
2023/12/20 01:39:39;;;;;;;30.70;16.23;;;;;;;6.17;71.44;101211.38;4886196;29;20043;-84
2023/12/20 01:42:06;;;;;;;27.58;16.40;;;;;;;6.15;70.90;101189.50;4883099;29;20143;-80
2023/12/20 01:44:35;;;;;;;34.58;17.23;;;;;;;5.82;71.41;101148.41;4848425;29;20298;-81
2023/12/20 01:47:03;;;;;;;32.88;15.65;;;;;;;5.92;71.62;101175.03;4846135;29;20401;-81
2023/12/20 01:49:30;;;;;;;24.92;15.75;;;;;;;5.71;71.87;101154.31;4863236;29;20047;-80
2023/12/20 01:51:57;;;;;;;27.83;16.50;;;;;;;5.78;72.27;101168.81;4861963;28;20089;-82
2023/12/20 01:54:25;;;;;;;28.70;16.30;;;;;;;5.67;72.96;101160.72;4887992;29;20127;-81
2023/12/20 01:56:52;;;;;;;30.05;16.83;;;;;;;5.67;72.92;101150.16;4882001;29;20627;-81
2023/12/20 01:59:20;;;;;;;31.92;15.45;;;;;;;5.72;72.29;101140.19;4870385;29;20309;-80
2023/12/20 02:01:47;;;;;;;31.08;17.05;;;;;;;5.56;72.90;101119.22;4864289;29;20576;-80
2023/12/20 02:04:15;;;;;;;39.08;15.85;;;;;;;5.61;72.83;101116.31;4850525;29;20051;-79
2023/12/20 02:06:42;;;;;;;26.15;14.77;;;;;;;5.77;72.29;101114.41;4871965;29;20482;-80
2023/12/20 02:09:09;;;;;;;27.25;13.85;;;;;;;5.91;71.51;101116.22;4867094;29;20052;-80
2023/12/20 02:11:36;;;;;;;33.60;14.45;;;;;;;5.78;71.11;101084.53;4858714;29;20518;-83
2023/12/20 02:14:05;;;;;;;30.63;14.90;;;;;;;6.04;71.49;101124.25;4881616;29;20052;-81
2023/12/20 02:16:32;;;;;;;25.45;13.68;;;;;;;5.91;71.75;101120.66;4885563;29;20139;-79
2023/12/20 02:18:59;;;;;;;27.40;13.73;;;;;;;5.91;72.29;101136.47;4884803;29;20417;-80
2023/12/20 02:21:32;;;;;;;41.42;15.85;;;;;;;5.91;71.92;101104.84;4884201;29;20143;-83
2023/12/20 02:23:59;;;;;;;38.25;15.05;;;;;;;6.00;71.63;101109.59;4889188;29;20129;-81
2023/12/20 02:26:26;;;;;;;34.42;15.10;;;;;;;5.90;71.30;101087.34;4886297;29;20059;-81
2023/12/20 02:28:54;;;;;;;34.60;13.85;;;;;;;5.88;72.17;101102.41;4882453;29;20237;-82
2023/12/20 02:31:25;;;;;;;43.33;16.00;;;;;;;5.89;71.80;101109.34;4885570;29;20051;-81
2023/12/20 02:33:52;;;;;;;48.35;15.60;;;;;;;5.46;72.21;101052.25;4870848;29;20056;-80
2023/12/20 02:36:20;;;;;;;35.70;14.02;;;;;;;5.69;72.49;101100.88;4878509;29;20044;-83
2023/12/20 02:38:47;;;;;;;32.30;13.48;;;;;;;5.71;72.89;101103.44;4868119;29;20465;-81
2023/12/20 02:41:20;;;;;;;37.35;14.82;;;;;;;5.69;72.72;101089.50;4883224;29;20044;-80
2023/12/20 02:43:47;;;;;;;32.22;14.57;;;;;;;5.85;72.52;101097.31;4879280;29;20039;-80
2023/12/20 02:46:16;;;;;;;34.97;13.82;;;;;;;5.55;72.75;101059.56;4880723;29;20043;-81
2023/12/20 02:48:43;;;;;;;26.67;12.43;;;;;;;5.64;73.30;101096.84;4882256;29;20421;-83
2023/12/20 02:51:10;;;;;;;36.35;12.95;;;;;;;5.41;73.47;101064.81;4873762;29;20040;-81
2023/12/20 02:53:37;;;;;;;37.20;12.32;;;;;;;5.57;73.27;101086.66;4869751;29;20048;-81
2023/12/20 02:56:04;;;;;;;36.35;13.52;;;;;;;5.58;73.25;101092.75;4862023;29;20135;-81
2023/12/20 02:58:31;;;;;;;39.75;13.75;;;;;;;5.54;73.49;101088.66;4882228;29;20354;-81
2023/12/20 03:01:01;;;;;;;43.13;15.82;;;;;;;5.55;72.65;101095.59;4884225;29;20048;-81
2023/12/20 03:03:28;;;;;;;28.70;14.77;;;;;;;5.72;71.64;101105.94;4892044;29;20087;-80
2023/12/20 03:05:54;;;;;;;38.67;15.45;;;;;;;5.42;71.00;101045.44;4898352;29;20046;-79
2023/12/20 03:08:21;;;;;;;29.95;16.17;;;;;;;5.69;70.82;101085.06;4894164;29;20142;-80
2023/12/20 03:10:48;;;;;;;37.20;16.52;;;;;;;5.64;70.58;101076.59;4901854;29;20111;-78
2023/12/20 03:13:15;;;;;;;25.70;15.48;;;;;;;5.73;70.99;101091.84;4885252;29;20150;-79
2023/12/20 03:15:42;;;;;;;28.23;16.38;;;;;;;5.61;70.49;101089.97;4873251;29;20290;-78
2023/12/20 03:18:09;;;;;;;30.98;16.05;;;;;;;5.71;70.64;101109.53;4895703;29;20095;-80
2023/12/20 03:20:35;;;;;;;27.20;16.92;;;;;;;5.55;71.04;101092.97;4864379;29;20251;-78
2023/12/20 03:23:03;;;;;;;25.48;15.65;;;;;;;5.19;70.83;101043.34;4900187;29;20511;-81
2023/12/20 03:25:29;;;;;;;29.98;15.85;;;;;;;5.32;71.28;101082.03;4896221;29;20471;-79
2023/12/20 03:27:56;;;;;;;33.45;15.88;;;;;;;5.33;71.21;101093.38;4900503;29;20047;-81
2023/12/20 03:30:23;;;;;;;25.08;15.63;;;;;;;5.35;71.58;101097.63;4902232;29;20110;-79
2023/12/20 03:32:50;;;;;;;26.02;15.82;;;;;;;5.40;71.80;101109.69;4887789;29;20155;-82
2023/12/20 03:35:17;;;;;;;23.13;15.45;;;;;;;5.37;72.43;101123.88;4881529;29;20035;-81
2023/12/20 03:37:44;;;;;;;24.27;13.77;;;;;;;5.25;72.01;101090.38;4879640;29;20044;-81
2023/12/20 03:40:11;;;;;;;24.05;13.40;;;;;;;5.48;71.35;101118.81;4902728;29;20054;-81
2023/12/20 03:42:40;;;;;;;22.02;13.23;;;;;;;5.20;70.58;101066.94;4885043;29;20052;-82
2023/12/20 03:45:08;;;;;;;19.42;11.48;;;;;;;5.58;70.17;101111.19;4898277;29;20043;-82
2023/12/20 03:47:35;;;;;;;22.50;12.10;;;;;;;5.74;69.69;101119.88;4880099;29;20671;-80
2023/12/20 03:50:04;;;;;;;21.73;12.27;;;;;;;5.42;69.63;101078.84;4897444;29;20040;-81
2023/12/20 03:52:30;;;;;;;19.98;12.48;;;;;;;5.35;70.42;101081.81;4878966;29;20058;-80
2023/12/20 03:54:57;;;;;;;17.92;12.25;;;;;;;5.48;70.93;101091.63;4874229;29;20130;-82
2023/12/20 03:57:24;;;;;;;26.48;13.00;;;;;;;5.44;71.18;101092.78;4906519;29;20044;-79
2023/12/20 03:59:51;;;;;;;22.90;11.88;;;;;;;5.51;70.68;101101.97;4891874;29;20047;-81
2023/12/20 04:02:18;;;;;;;25.05;11.82;;;;;;;5.42;70.09;101070.94;4884687;29;20052;-82
2023/12/20 04:04:44;;;;;;;19.63;11.48;;;;;;;5.60;70.47;101059.28;4884127;29;20472;-82
2023/12/20 04:07:11;;;;;;;16.92;11.48;;;;;;;5.68;69.47;101064.06;4882228;29;20396;-80
2023/12/20 04:09:42;;;;;;;19.88;12.13;;;;;;;5.60;69.85;101042.63;4887915;29;20660;-80
2023/12/20 04:12:11;;;;;;;15.70;10.52;;;;;;;5.62;70.19;101049.50;4879336;29;20050;-80
2023/12/20 04:14:46;;;;;;;24.63;11.98;;;;;;;5.59;70.68;101078.66;4892967;29;20058;-82
2023/12/20 04:17:15;;;;;;;16.02;10.68;;;;;;;5.47;70.87;101063.63;4905318;29;20043;-79
2023/12/20 04:19:45;;;;;;;17.55;11.43;;;;;;;5.43;71.17;101062.09;4900661;29;20146;-82
2023/12/20 04:22:12;;;;;;;19.10;12.30;;;;;;;5.61;70.84;101066.25;4884835;29;20158;-81
2023/12/20 04:24:38;;;;;;;27.30;11.55;;;;;;;5.58;70.91;101076.97;4910013;29;20131;-80
2023/12/20 04:27:05;;;;;;;17.83;11.93;;;;;;;5.29;71.57;101029.56;4883706;29;20439;-80
2023/12/20 04:29:32;;;;;;;16.77;11.73;;;;;;;5.48;71.78;101060.03;4897681;29;20052;-81
2023/12/20 04:31:59;;;;;;;19.35;11.85;;;;;;;5.35;71.59;101044.97;4897107;29;20313;-82
2023/12/20 04:34:26;;;;;;;18.75;11.93;;;;;;;5.16;72.08;101022.47;4897461;29;20059;-82
2023/12/20 04:36:53;;;;;;;19.02;11.77;;;;;;;4.45;72.45;100926.66;4871691;29;20040;-80
2023/12/20 04:39:20;;;;;;;23.00;11.23;;;;;;;4.97;72.69;101012.19;4900643;29;20056;-80
2023/12/20 04:41:47;;;;;;;22.33;12.18;;;;;;;5.23;72.22;101066.75;4889498;29;20130;-82
2023/12/20 04:44:14;;;;;;;19.10;12.40;;;;;;;5.00;72.14;101023.41;4875531;29;20047;-82
2023/12/20 04:46:46;;;;;;;;;;;;;;;5.39;72.57;101044.78;4871649;29;20412;-80
2023/12/20 04:49:14;;;;;;;21.08;11.38;;;;;;;5.26;71.50;100995.50;4853666;29;20228;-82
2023/12/20 04:51:41;;;;;;;21.73;12.27;;;;;;;5.37;71.11;100979.06;4871956;28;20488;-79
2023/12/20 04:54:08;;;;;;;23.05;13.02;;;;;;;5.61;71.12;101018.84;4877161;29;20079;-80
2023/12/20 04:56:35;;;;;;;23.05;13.27;;;;;;;5.55;72.20;101014.78;4880555;29;20135;-82
2023/12/20 04:59:05;;;;;;;22.63;12.93;;;;;;;5.50;70.81;100985.25;4868219;29;20064;-83
2023/12/20 05:01:32;;;;;;;20.23;11.57;;;;;;;5.22;72.19;100969.44;4882435;29;20207;-82
2023/12/20 05:03:59;;;;;;;32.38;11.82;;;;;;;5.52;71.60;100987.81;4898578;29;20395;-82
2023/12/20 05:06:26;;;;;;;20.70;12.20;;;;;;;4.70;71.56;100853.25;4909197;29;20043;-80
2023/12/20 05:08:53;;;;;;;16.67;10.30;;;;;;;5.59;71.55;100977.75;4884802;29;20066;-80
2023/12/20 05:11:23;;;;;;;21.73;11.07;;;;;;;5.45;70.71;100947.84;4878418;29;20570;-80
2023/12/20 05:13:50;;;;;;;17.58;10.82;;;;;;;5.04;71.35;100903.00;4870870;29;20048;-79
2023/12/20 05:16:18;;;;;;;21.50;11.00;;;;;;;5.45;71.61;100991.75;4873773;29;20647;-81
2023/12/20 05:18:47;;;;;;;19.23;10.50;;;;;;;5.14;71.96;100935.69;4896747;29;20416;-80
2023/12/20 05:21:14;;;;;;;16.98;10.43;;;;;;;5.49;71.64;100977.47;4869338;29;20044;-82
2023/12/20 05:23:44;;;;;;;20.98;10.63;;;;;;;5.29;72.45;100955.84;4871585;29;20082;-82
2023/12/20 05:26:11;;;;;;;20.48;11.05;;;;;;;5.37;72.09;100973.81;4897891;29;20368;-82
2023/12/20 05:28:38;;;;;;;424.15;272.15;;;;;;;5.12;72.74;100943.72;4879122;29;20373;-80
2023/12/20 05:31:05;;;;;;;43.50;27.80;;;;;;;5.46;71.96;100972.38;4880280;29;20050;-82
2023/12/20 05:33:32;;;;;;;35.63;26.08;;;;;;;5.45;72.25;100975.97;4837733;29;20063;-82
2023/12/20 05:35:59;;;;;;;29.77;15.05;;;;;;;5.16;72.65;100932.97;4852708;29;20047;-80
2023/12/20 05:38:27;;;;;;;23.83;12.80;;;;;;;5.29;72.07;100982.16;4895517;29;20139;-82
2023/12/20 05:40:56;;;;;;;27.02;11.85;;;;;;;5.32;71.68;100999.56;4892016;29;20475;-83
2023/12/20 05:43:23;;;;;;;20.17;11.35;;;;;;;5.32;71.69;100992.50;4903850;29;20052;-80
2023/12/20 05:45:50;;;;;;;19.67;11.00;;;;;;;5.31;71.79;100988.16;4889513;29;20098;-82
2023/12/20 05:48:27;;;;;;;22.45;11.23;;;;;;;5.10;72.40;100960.53;4864528;29;20420;-80
2023/12/20 05:50:55;;;;;;;22.73;12.82;;;;;;;5.30;71.20;100983.00;4888331;28;20043;-82
2023/12/20 05:53:22;;;;;;;23.90;13.73;;;;;;;5.22;71.46;100967.69;4874153;29;20445;-82
2023/12/20 05:55:49;;;;;;;29.83;14.18;;;;;;;5.24;72.04;100984.25;4873542;29;20043;-81
2023/12/20 05:58:15;;;;;;;20.48;12.07;;;;;;;5.08;71.90;100962.41;4871231;29;20717;-78
2023/12/20 06:00:43;;;;;;;30.13;15.68;;;;;;;5.30;71.18;100999.66;4894324;29;20095;-82
2023/12/20 06:03:10;;;;;;;25.83;15.35;;;;;;;5.35;70.24;100984.41;4894303;29;20058;-82
2023/12/20 06:05:37;;;;;;;27.10;14.70;;;;;;;5.47;70.70;101008.31;4885604;29;20067;-80
2023/12/20 06:08:04;;;;;;;20.42;12.15;;;;;;;5.49;70.37;101009.91;4897354;29;20064;-79
2023/12/20 06:10:33;;;;;;;29.08;15.10;;;;;;;5.04;70.29;100929.31;4903576;29;20400;-80
2023/12/20 06:13:00;;;;;;;27.27;15.50;;;;;;;5.59;69.58;101007.56;4892335;29;20047;-81
2023/12/20 06:15:27;;;;;;;40.25;17.75;;;;;;;5.60;69.49;101022.41;4895891;29;20051;-80
2023/12/20 06:17:54;;;;;;;30.63;15.15;;;;;;;5.29;69.89;100961.09;4875482;29;20048;-81
2023/12/20 06:20:21;;;;;;;32.88;18.25;;;;;;;5.68;70.05;101009.63;4896250;29;20055;-81
2023/12/20 06:22:48;;;;;;;36.10;17.40;;;;;;;5.77;70.01;101014.31;4877545;29;20055;-80
2023/12/20 06:25:15;;;;;;;26.27;13.60;;;;;;;5.90;69.18;101009.13;4869142;29;20522;-81
2023/12/20 06:27:42;;;;;;;27.58;14.95;;;;;;;5.56;69.24;100960.34;4909429;29;20207;-81
2023/12/20 06:30:09;;;;;;;26.30;13.23;;;;;;;5.75;69.69;101003.03;4904473;29;20212;-82
2023/12/20 06:32:39;;;;;;;33.03;15.32;;;;;;;5.74;70.55;101013.66;4883609;29;20082;-81
2023/12/20 06:35:06;;;;;;;30.40;15.13;;;;;;;5.69;70.38;100979.69;4880175;29;20040;-82
2023/12/20 06:37:36;;;;;;;43.95;16.67;;;;;;;5.61;70.23;100991.63;4879432;29;20040;-82
2023/12/20 06:40:06;;;;;;;34.88;15.70;;;;;;;5.67;70.03;100975.47;4880911;29;20040;-81
2023/12/20 06:42:42;;;;;;;30.13;16.10;;;;;;;5.65;70.86;100993.16;4886861;29;20277;-82
2023/12/20 06:45:32;;;;;;;32.63;15.20;;;;;;;5.58;70.36;101003.22;4881264;29;20052;-82
2023/12/20 06:48:05;;;;;;;34.72;14.63;;;;;;;5.29;71.24;100969.00;4902551;29;20463;-83
2023/12/20 06:50:32;;;;;;;33.72;14.70;;;;;;;4.83;71.10;100903.38;4905758;29;20060;-82
2023/12/20 06:52:59;;;;;;;35.38;14.95;;;;;;;5.54;70.49;101005.22;4885740;29;20135;-83
2023/12/20 06:55:26;;;;;;;34.75;14.60;;;;;;;5.35;70.57;100965.97;4900597;29;20368;-81
2023/12/20 06:57:53;;;;;;;30.50;15.10;;;;;;;5.58;70.25;100987.41;4900293;29;20225;-82
2023/12/20 07:00:20;;;;;;;23.77;14.02;;;;;;;5.82;70.65;100995.56;4901593;29;20048;-82
2023/12/20 07:02:47;;;;;;;31.48;14.00;;;;;;;5.88;70.20;100991.72;4890501;29;20082;-82
2023/12/20 07:05:17;;;;;;;41.03;15.80;;;;;;;5.73;70.07;100981.22;4906358;29;20612;-82
2023/12/20 07:07:44;;;;;;;26.27;16.40;;;;;;;5.89;70.45;100986.34;4889389;29;20896;-83
2023/12/20 07:10:11;;;;;;;38.33;15.15;;;;;;;5.81;70.35;100940.38;4899310;29;20048;-81
2023/12/20 07:12:38;;;;;;;27.13;14.00;;;;;;;6.09;70.30;100986.91;4895420;29;20091;-81
2023/12/20 07:15:06;;;;;;;36.17;16.13;;;;;;;6.00;70.68;100988.34;4879781;29;20054;-81
2023/12/20 07:17:33;;;;;;;22.75;14.57;;;;;;;6.02;70.91;100999.66;4904701;29;20492;-82
2023/12/20 07:20:03;;;;;;;25.63;14.02;;;;;;;5.98;70.85;100979.69;4893127;29;20063;-81
2023/12/20 07:22:31;;;;;;;37.03;16.20;;;;;;;6.06;70.69;101001.13;4903521;29;20078;-82
2023/12/20 07:25:00;;;;;;;31.85;16.80;;;;;;;5.71;71.60;100943.56;4896851;29;20055;-82
2023/12/20 07:27:27;;;;;;;30.55;15.30;;;;;;;6.11;70.77;101006.94;4886195;29;20086;-82
2023/12/20 07:29:54;;;;;;;33.92;17.27;;;;;;;6.14;71.39;101012.03;4884938;29;20138;-79
2023/12/20 07:32:21;;;;;;;25.33;14.63;;;;;;;6.31;70.76;100995.16;4882354;29;20410;-82
2023/12/20 07:34:48;;;;;;;33.88;15.38;;;;;;;6.31;70.24;100962.63;4880926;29;20048;-81
2023/12/20 07:37:17;;;;;;;35.33;15.38;;;;;;;6.30;70.33;100974.13;4896303;29;20044;-82
2023/12/20 07:39:46;;;;;;;32.75;15.82;;;;;;;6.19;71.01;100951.13;4903602;29;20052;-80
2023/12/20 07:42:13;;;;;;;31.02;15.65;;;;;;;6.46;70.23;100969.56;4897277;29;20051;-81
2023/12/20 07:44:41;;;;;;;31.52;15.15;;;;;;;6.48;70.26;100965.03;4875904;29;20115;-82
2023/12/20 07:47:08;;;;;;;27.90;17.00;;;;;;;6.54;70.62;100980.44;4902388;29;20212;-83
2023/12/20 07:49:35;;;;;;;45.00;17.05;;;;;;;6.56;70.99;100968.00;4882768;29;20047;-82
2023/12/20 07:52:02;;;;;;;39.10;17.88;;;;;;;6.45;70.33;100938.00;4884354;29;20040;-82
2023/12/20 07:54:30;;;;;;;34.70;17.42;;;;;;;6.66;70.34;100973.50;4900639;29;20107;-82
2023/12/20 07:56:59;;;;;;;29.92;16.65;;;;;;;6.49;70.66;100936.84;4882288;29;20455;-81
2023/12/20 07:59:26;;;;;;;32.40;18.23;;;;;;;6.79;70.00;100968.25;4885964;29;20118;-82
2023/12/20 08:01:58;;;;;;;;;;;;;;;6.84;70.11;100979.34;4877736;29;20062;-81
2023/12/20 08:04:27;;;;;;;32.00;16.92;;;;;;;6.75;70.28;100970.25;4886382;29;19925;-81
2023/12/20 08:06:54;;;;;;;27.75;16.10;;;;;;;6.81;70.53;100990.09;4861000;29;20130;-81
2023/12/20 08:09:21;;;;;;;34.03;18.63;;;;;;;6.46;69.84;100937.91;4872782;29;20568;-81
2023/12/20 08:11:49;;;;;;;33.55;19.23;;;;;;;6.94;69.35;101016.50;4875862;29;20130;-79
2023/12/20 08:14:16;;;;;;;41.22;17.60;;;;;;;6.73;68.17;100972.16;4875010;29;20472;-81
2023/12/20 08:16:45;;;;;;;28.90;16.58;;;;;;;7.12;67.88;101025.00;4878208;29;20054;-81
2023/12/20 08:19:13;;;;;;;31.42;16.85;;;;;;;7.16;67.80;101026.47;4887533;29;20039;-80
2023/12/20 08:21:40;;;;;;;28.50;16.42;;;;;;;6.47;66.66;100913.22;4897955;29;20043;-81
2023/12/20 08:24:08;;;;;;;27.88;15.35;;;;;;;6.42;65.92;100894.22;4891595;29;20127;-81
2023/12/20 08:26:34;;;;;;;34.63;16.25;;;;;;;7.11;65.39;101012.75;4866272;29;20035;-82
2023/12/20 08:29:01;;;;;;;40.13;17.40;;;;;;;6.28;65.28;100854.75;4897337;29;20258;-82
2023/12/20 08:31:31;;;;;;;34.45;17.05;;;;;;;7.30;65.48;101039.59;4865673;29;20048;-81
2023/12/20 08:34:00;;;;;;;39.20;16.88;;;;;;;7.42;64.27;101036.09;4897096;29;20174;-82
2023/12/20 08:36:27;;;;;;;39.85;18.38;;;;;;;7.37;64.49;101027.66;4866988;29;20314;-80
2023/12/20 08:39:03;;;;;;;32.47;16.80;;;;;;;7.29;64.01;101032.63;4855948;29;20044;-81
2023/12/20 08:41:31;;;;;;;34.80;16.08;;;;;;;7.20;64.63;101012.13;4855285;29;20439;-80
2023/12/20 08:43:58;;;;;;;34.05;16.45;;;;;;;7.32;64.33;101037.69;4872667;29;20047;-80
2023/12/20 08:46:25;;;;;;;36.80;16.92;;;;;;;7.24;64.81;101029.47;4877461;29;20432;-80
2023/12/20 08:48:57;;;;;;;30.50;15.95;;;;;;;7.19;64.72;101044.78;4868462;29;20130;-81
2023/12/20 08:51:25;;;;;;;;;;;;;;;7.29;64.48;101069.59;4860009;29;20044;-79
2023/12/20 08:53:52;;;;;;;31.63;16.35;;;;;;;7.00;64.76;101022.22;4870243;29;19961;-80
2023/12/20 08:56:20;;;;;;;33.50;16.35;;;;;;;6.96;64.21;101018.09;4870713;29;20052;-80
2023/12/20 08:58:47;;;;;;;38.08;16.63;;;;;;;7.17;65.02;101050.13;4894377;29;20134;-82
2023/12/20 09:01:14;;;;;;;28.08;16.52;;;;;;;7.23;65.23;101062.94;4873040;29;20236;-79
2023/12/20 09:03:42;;;;;;;33.65;16.85;;;;;;;7.00;65.15;101010.84;4848622;29;20402;-81
2023/12/20 09:06:09;;;;;;;32.08;18.17;;;;;;;7.04;64.73;101021.09;4847717;29;20515;-80
2023/12/20 09:08:39;;;;;;;34.10;19.17;;;;;;;7.13;64.36;101009.03;4901172;29;20403;-81
2023/12/20 09:11:07;;;;;;;40.75;18.77;;;;;;;7.39;65.09;101053.97;4886598;29;20408;-80
2023/12/20 09:13:34;;;;;;;49.65;24.58;;;;;;;7.47;64.86;101057.75;4888012;29;20078;-81
2023/12/20 09:16:03;;;;;;;44.47;26.95;;;;;;;7.36;65.59;101044.47;4890273;29;20366;-81
2023/12/20 09:18:31;;;;;;;58.97;30.88;;;;;;;7.53;65.42;101042.47;4897958;29;20054;-81
2023/12/20 09:20:58;;;;;;;73.40;33.63;;;;;;;7.33;65.68;101007.72;4901625;29;20124;-82
2023/12/20 09:23:27;;;;;;;60.35;37.03;;;;;;;7.55;66.05;101037.91;4901008;29;20492;-82
2023/12/20 09:25:54;;;;;;;66.90;37.28;;;;;;;7.34;65.98;101003.25;4890022;29;20056;-80
2023/12/20 09:28:23;;;;;;;63.80;36.53;;;;;;;7.25;66.62;100975.69;4906974;29;20047;-80
2023/12/20 09:30:53;;;;;;;65.80;38.67;;;;;;;7.55;66.66;101012.34;4898644;29;20562;-81
2023/12/20 09:33:25;;;;;;;68.90;37.45;;;;;;;7.83;66.13;101036.81;4872813;29;20618;-83
2023/12/20 09:35:55;;;;;;;67.60;39.53;;;;;;;7.80;65.26;101043.19;4867639;29;20466;-79
2023/12/20 09:38:22;;;;;;;71.88;36.75;;;;;;;7.77;65.07;101011.69;4895234;29;20047;-80
2023/12/20 09:40:50;;;;;;;60.55;36.40;;;;;;;8.02;64.86;101054.88;4882591;29;20059;-81
2023/12/20 09:43:23;;;;;;;61.83;34.17;;;;;;;7.71;64.64;100993.59;4894893;29;20087;-84
2023/12/20 09:45:53;;;;;;;51.17;32.03;;;;;;;8.02;63.72;101033.72;4878228;29;20047;-80
2023/12/20 09:48:20;;;;;;;54.47;32.08;;;;;;;7.95;63.70;101021.91;4886765;29;20114;-81
2023/12/20 09:50:50;;;;;;;68.80;31.33;;;;;;;8.05;63.77;101038.78;4887198;29;20162;-81
2023/12/20 09:53:23;;;;;;;59.33;30.52;;;;;;;7.85;63.75;101001.41;4895625;29;20069;-80
2023/12/20 09:55:51;;;;;;;61.17;30.10;;;;;;;8.10;63.77;101039.31;4886129;29;20238;-81
2023/12/20 09:58:18;;;;;;;51.15;29.45;;;;;;;8.07;63.41;101015.72;4900756;29;20052;-80
2023/12/20 10:00:48;;;;;;;52.92;29.38;;;;;;;8.24;63.44;101025.94;4906254;29;20079;-81
2023/12/20 10:03:15;;;;;;;52.10;28.17;;;;;;;8.21;62.85;101010.28;4882631;29;20474;-80
2023/12/20 10:05:44;;;;;;;55.15;28.50;;;;;;;8.46;62.44;101029.69;4855246;29;20511;-82
2023/12/20 10:08:11;;;;;;;53.47;27.48;;;;;;;8.34;62.03;101010.25;4886221;29;20048;-81
2023/12/20 10:10:41;;;;;;;54.90;27.77;;;;;;;8.42;61.75;101005.25;4898706;29;20054;-80
2023/12/20 10:13:15;;;;;;;49.50;26.98;;;;;;;8.32;62.35;100994.47;4908660;29;20103;-81
2023/12/20 10:15:42;;;;;;;58.80;28.13;;;;;;;7.85;62.73;100908.88;4893564;29;20508;-82
2023/12/20 10:18:10;;;;;;;53.03;28.40;;;;;;;8.16;62.85;100941.03;4907215;29;20799;-81
2023/12/20 10:20:40;;;;;;;52.78;26.73;;;;;;;8.59;62.28;100993.41;4896612;29;20336;-80
2023/12/20 10:23:08;;;;;;;57.05;26.98;;;;;;;8.42;61.87;100962.09;4887422;29;20044;-80
2023/12/20 10:25:35;;;;;;;47.40;27.30;;;;;;;8.60;61.63;100981.91;4902346;29;20463;-80
2023/12/20 10:28:14;;;;;;;51.10;27.20;;;;;;;8.64;62.09;100991.31;4884094;29;20357;-81
2023/12/20 10:30:41;;;;;;;46.85;27.40;;;;;;;8.58;62.12;100957.34;4892149;29;20530;-81
2023/12/20 10:33:09;;;;;;;49.92;27.40;;;;;;;8.63;62.78;100973.72;4903607;29;20048;-82
2023/12/20 10:35:38;;;;;;;53.80;28.50;;;;;;;8.70;62.95;100956.41;4884343;29;20039;-81
2023/12/20 10:38:13;;;;;;;54.58;29.50;;;;;;;8.80;62.36;100951.28;4894079;29;20583;-80
2023/12/20 10:40:40;;;;;;;50.00;26.58;;;;;;;8.81;62.54;100933.59;4883932;29;20476;-81
2023/12/20 10:43:08;;;;;;;52.50;28.83;;;;;;;8.90;62.35;100943.47;4905102;29;20052;-80
2023/12/20 10:45:36;;;;;;;57.40;28.23;;;;;;;8.92;61.68;100929.16;4886375;29;20039;-82
2023/12/20 10:48:03;;;;;;;52.70;27.63;;;;;;;9.05;62.26;100938.81;4888632;29;20494;-81
2023/12/20 10:50:31;;;;;;;52.42;26.75;;;;;;;8.89;60.93;100891.50;4890570;29;20059;-79
2023/12/20 10:52:59;;;;;;;50.50;28.52;;;;;;;9.03;61.15;100898.34;4902537;29;20503;-80
2023/12/20 10:55:27;;;;;;;52.63;28.20;;;;;;;9.22;61.15;100922.44;4883879;29;20658;-81
2023/12/20 10:58:10;;;;;;;55.28;29.15;;;;;;;8.91;60.23;100863.94;4908783;29;20078;-81
2023/12/20 11:00:41;;;;;;;50.17;28.20;;;;;;;9.23;60.02;100900.31;4884308;29;20360;-83
2023/12/20 11:03:10;;;;;;;56.07;30.80;;;;;;;9.11;60.00;100877.44;4897149;29;20087;-81
2023/12/20 11:06:02;;;;;;;55.22;26.17;;;;;;;9.37;59.62;100923.91;4907519;29;20043;-82
2023/12/20 11:08:38;;;;;;;53.85;29.10;;;;;;;9.36;60.09;100913.41;4922079;29;20134;-81
2023/12/20 11:11:29;;;;;;;48.95;26.88;;;;;;;9.46;59.36;100910.88;4922851;29;20468;-81
2023/12/20 11:14:11;;;;;;;55.25;27.83;;;;;;;9.20;58.93;100866.13;4883084;29;20055;-80
2023/12/20 11:16:38;;;;;;;50.60;28.73;;;;;;;9.37;59.30;100891.28;4879168;29;20485;-81
2023/12/20 11:19:22;;;;;;;55.05;30.00;;;;;;;9.43;59.27;100896.06;4909804;29;20774;-81
2023/12/20 11:21:53;;;;;;;55.25;28.67;;;;;;;9.43;59.16;100888.13;4909340;29;20399;-82
2023/12/20 11:24:24;;;;;;;60.25;29.88;;;;;;;9.39;59.85;100882.25;4922223;29;20487;-81